Airfield :







YOU CAN JOIN US ON...

 
LOGIN :

Register | Disclaimer

   EN    FR    IT 

 









Legend :    VFR   Marginal VFR   IFR   Intensive IFR   Very Intensive IFR
Visi :
Ceiling :
>= 8 km
>= 3000ft
5 to 8 km
1000 to 3000 ft
1500m to 5 km
500 to 1000 ft
800 to 1500m
200 to 500 ft
< 800m
< 200 ft
Symbols :   Thunderstorms  Fog  Heavy snow  Heavy precipitations  Wind > 20 kt






- Airport Elevation : 199 ft
- IATA code : YRQ


CYRQ - Trois-Rivières

CURRENT METAR :
  • 232300Z AUTO 16002KT 9SM SCT050 BKN060 BKN130 OVC210 M02/M04 A3031 RMK SLP270

EXPIRED METARs :
  • 232200Z AUTO 21005KT 9SM BKN050 BKN060 BKN140 OVC220 M02/M05 A3029 RMK SLP262
  • 232100Z AUTO 22007KT 9SM SCT150 BKN220 M00/M05 A3028 RMK SLP260
  • 232000Z AUTO 22011KT 9SM OVC055 M00/M05 A3027 RMK SLP256

TAF TAF CYRQ
Valid from the 23 at 20:00 until the 24 at 08:00 UTC


231940Z 2320/2408 21010KT P6SM SCT050
TEMPO 2320/2403 BKN050
FM240300 VRB03KT P6SM SCT020
PROB30 2403/2408 1SM BR BKN003 RMK FCST BASED ON AUTO OBS. NXT FCST BY 240200Z



MET'MAP, your aeronautical weather chart ! - Copyright ORBIFLY December 2007 - Disclaimer

ORBIFLY MET'MAP TEAM :

Programming & Development : Alexandra Zaïnal
Concept & original design : Baudouin d'Aumeries
Assistance for programming : Marc-Olivier Méhu
Technical & hardware support : Manuel Goepfert

Contact : metmap@orbifly.com




SOURCES & CREDITS :

   NOAA